createdAt,value
2022-10-22T00:00:52.462Z,10.00
2022-10-22T00:03:40.836Z,10.10
2022-10-22T00:06:10.799Z,10.10
2022-10-22T00:08:38.476Z,10.10
2022-10-22T00:11:11.096Z,10.10
2022-10-22T00:13:41.324Z,10.00
2022-10-22T00:16:09.432Z,10.10
2022-10-22T00:18:36.900Z,10.10
2022-10-22T00:21:05.882Z,10.10
2022-10-22T00:23:35.530Z,10.10
2022-10-22T00:26:05.353Z,10.20
2022-10-22T00:28:32.460Z,10.20
2022-10-22T00:31:01.140Z,10.20
2022-10-22T00:33:33.763Z,10.30
2022-10-22T00:36:01.124Z,10.30
2022-10-22T00:38:28.113Z,10.30
2022-10-22T00:40:56.012Z,10.30
2022-10-22T00:43:23.458Z,10.30
2022-10-22T00:45:50.723Z,10.30
2022-10-22T00:48:24.440Z,10.40
2022-10-22T00:50:56.012Z,10.40
2022-10-22T00:53:54.439Z,10.40
2022-10-22T00:56:25.803Z,10.30
2022-10-22T00:58:57.745Z,10.40
2022-10-22T01:01:31.530Z,10.40
2022-10-22T01:03:59.336Z,10.50
2022-10-22T01:06:32.257Z,10.70
2022-10-22T01:09:08.512Z,10.90
2022-10-22T01:12:01.649Z,11.20
2022-10-22T01:14:50.592Z,11.20
2022-10-22T01:17:43.371Z,11.30
2022-10-22T01:20:39.466Z,11.20
2022-10-22T01:23:06.907Z,11.10
2022-10-22T01:26:18.555Z,11.10
2022-10-22T01:29:06.052Z,11.00
2022-10-22T01:31:41.586Z,11.00
2022-10-22T01:34:11.924Z,11.00
2022-10-22T01:36:39.583Z,11.00
2022-10-22T01:39:08.756Z,11.00
2022-10-22T01:41:36.433Z,11.00
2022-10-22T01:44:03.927Z,11.00
2022-10-22T01:46:31.165Z,10.90
2022-10-22T01:49:13.250Z,10.90
2022-10-22T01:51:54.452Z,10.80
2022-10-22T01:54:37.059Z,10.80
2022-10-22T01:57:23.916Z,10.70
2022-10-22T02:00:07.890Z,10.70
2022-10-22T02:02:54.901Z,10.60
2022-10-22T02:05:44.875Z,10.60
2022-10-22T02:08:24.711Z,10.50
2022-10-22T02:10:53.304Z,10.50
2022-10-22T02:13:35.235Z,10.40
2022-10-22T02:16:06.639Z,10.50
2022-10-22T02:18:40.239Z,10.40
2022-10-22T02:23:40.069Z,10.50
2022-10-22T02:26:14.693Z,10.50
2022-10-22T02:28:58.667Z,10.40
2022-10-22T02:31:35.611Z,10.40
2022-10-22T02:34:08.289Z,10.40
2022-10-22T02:36:40.613Z,10.40
2022-10-22T02:39:09.580Z,10.40
2022-10-22T02:41:37.929Z,10.50
2022-10-22T02:44:11.039Z,10.50
2022-10-22T02:46:40.125Z,10.60
2022-10-22T02:49:07.571Z,10.60
2022-10-22T02:51:34.931Z,10.60
2022-10-22T02:54:02.153Z,10.70
2022-10-22T02:56:29.543Z,10.70
2022-10-22T02:58:56.647Z,10.70
2022-10-22T03:01:24.444Z,10.70
2022-10-22T03:03:51.590Z,10.80
2022-10-22T03:06:18.999Z,10.80
2022-10-22T03:08:46.344Z,10.80
2022-10-22T03:11:13.809Z,10.80
2022-10-22T03:13:40.873Z,10.80
2022-10-22T03:16:08.522Z,10.70
2022-10-22T03:18:35.925Z,10.80
2022-10-22T03:21:09.937Z,10.80
2022-10-22T03:23:41.389Z,10.80
2022-10-22T03:26:10.486Z,10.80
2022-10-22T03:28:39.841Z,10.80
2022-10-22T03:31:07.424Z,10.80
2022-10-22T03:33:34.550Z,10.80
2022-10-22T03:36:02.255Z,10.80
2022-10-22T03:38:30.368Z,10.70
2022-10-22T03:40:58.251Z,10.80
2022-10-22T03:43:25.483Z,10.80
2022-10-22T03:45:52.960Z,10.80
2022-10-22T03:48:20.523Z,10.80
2022-10-22T03:50:50.846Z,10.80
2022-10-22T03:53:18.049Z,10.80
2022-10-22T03:55:45.318Z,10.70
2022-10-22T03:58:12.546Z,10.70
2022-10-22T04:00:40.173Z,10.70
2022-10-22T04:03:07.560Z,10.70
2022-10-22T04:05:35.062Z,10.80
2022-10-22T04:08:02.324Z,10.80
2022-10-22T04:10:29.653Z,10.70
2022-10-22T04:12:56.779Z,10.90
2022-10-22T04:15:24.274Z,10.90
2022-10-22T04:17:51.270Z,10.80
2022-10-22T04:20:18.690Z,10.80
2022-10-22T04:22:46.078Z,10.80
2022-10-22T04:25:13.488Z,10.80
2022-10-22T04:27:40.757Z,10.80
2022-10-22T04:30:09.126Z,10.70
2022-10-22T04:32:36.326Z,10.70
2022-10-22T04:35:03.987Z,10.70
2022-10-22T04:37:31.395Z,10.80
2022-10-22T04:39:59.108Z,10.80
2022-10-22T04:42:26.298Z,10.80
2022-10-22T04:44:53.904Z,10.90
2022-10-22T04:47:21.308Z,10.90
2022-10-22T04:49:48.868Z,10.90
2022-10-22T04:52:16.080Z,10.90
2022-10-22T04:54:43.844Z,10.80
2022-10-22T04:57:10.930Z,10.80
2022-10-22T04:59:38.354Z,10.80
2022-10-22T05:02:08.024Z,10.80
2022-10-22T05:04:35.314Z,10.90
2022-10-22T05:07:03.485Z,10.90
2022-10-22T05:09:30.856Z,10.90
2022-10-22T05:11:57.971Z,10.90
2022-10-22T05:14:25.837Z,10.90
2022-10-22T05:16:55.466Z,10.90
2022-10-22T05:19:28.105Z,11.00
2022-10-22T05:21:58.171Z,10.90
2022-10-22T05:24:27.091Z,11.00
2022-10-22T05:26:56.082Z,11.00
2022-10-22T05:29:24.304Z,11.00
2022-10-22T05:31:51.689Z,11.00
2022-10-22T05:34:19.487Z,11.00
2022-10-22T05:36:46.661Z,11.10
2022-10-22T05:39:14.249Z,11.10
2022-10-22T05:41:43.353Z,11.10
2022-10-22T05:44:13.980Z,11.20
2022-10-22T05:46:41.806Z,11.30
2022-10-22T05:49:13.509Z,11.30
2022-10-22T05:51:40.587Z,11.30
2022-10-22T05:54:19.811Z,11.40
2022-10-22T05:56:46.938Z,11.40
2022-10-22T05:59:14.451Z,11.40
2022-10-22T06:01:41.718Z,11.40
2022-10-22T06:04:11.935Z,11.40
2022-10-22T06:06:51.334Z,11.50
2022-10-22T06:09:26.493Z,11.50
2022-10-22T06:11:54.874Z,11.50
2022-10-22T06:14:22.386Z,11.50
2022-10-22T06:16:53.147Z,11.50
2022-10-22T06:19:23.104Z,11.60
2022-10-22T06:21:50.376Z,11.60
2022-10-22T06:24:17.704Z,11.60
2022-10-22T06:26:50.279Z,11.70
2022-10-22T06:29:18.169Z,11.80
2022-10-22T06:31:45.786Z,11.90
2022-10-22T06:34:16.244Z,11.90
2022-10-22T06:36:44.804Z,12.00
2022-10-22T06:39:18.958Z,12.00
2022-10-22T06:41:46.113Z,12.10
2022-10-22T06:44:18.993Z,12.10
2022-10-22T06:46:46.156Z,12.20
2022-10-22T06:49:15.559Z,12.20
2022-10-22T06:51:43.530Z,12.20
2022-10-22T06:54:12.087Z,12.20
2022-10-22T06:56:39.320Z,12.20
2022-10-22T06:59:06.831Z,12.20
2022-10-22T07:01:35.980Z,12.20
2022-10-22T07:04:05.013Z,12.20
2022-10-22T07:06:32.498Z,12.20
2022-10-22T07:09:00.442Z,12.20
2022-10-22T07:11:30.872Z,12.20
2022-10-22T07:14:00.680Z,12.20
2022-10-22T07:16:31.048Z,12.30
2022-10-22T07:19:04.072Z,12.30
2022-10-22T07:21:31.985Z,12.30
2022-10-22T07:23:59.652Z,12.40
2022-10-22T07:26:28.443Z,12.30
2022-10-22T07:28:55.740Z,12.40
2022-10-22T07:31:23.251Z,12.40
2022-10-22T07:33:50.807Z,12.40
2022-10-22T07:36:22.401Z,12.40
2022-10-22T07:38:55.335Z,12.50
2022-10-22T07:41:22.495Z,12.40
2022-10-22T07:43:50.312Z,12.50
2022-10-22T07:46:17.399Z,12.40
2022-10-22T07:48:44.883Z,12.40
2022-10-22T07:51:12.036Z,12.40
2022-10-22T07:53:39.642Z,12.40
2022-10-22T07:56:07.432Z,12.40
2022-10-22T07:58:34.987Z,12.40
2022-10-22T08:01:03.291Z,12.50
2022-10-22T08:03:30.664Z,12.40
2022-10-22T08:05:58.379Z,12.40
2022-10-22T08:08:30.457Z,12.40
2022-10-22T08:11:00.166Z,12.40
2022-10-22T08:13:27.612Z,12.50
2022-10-22T08:15:57.395Z,12.60
2022-10-22T08:18:26.592Z,12.50
2022-10-22T08:20:54.217Z,12.50
2022-10-22T08:23:27.577Z,12.50
2022-10-22T08:25:58.443Z,12.50
2022-10-22T08:28:26.176Z,12.50
2022-10-22T08:30:53.247Z,12.60
2022-10-22T08:33:21.079Z,12.60
2022-10-22T08:35:49.840Z,12.60
2022-10-22T08:38:18.240Z,12.70
2022-10-22T08:40:50.265Z,12.60
2022-10-22T08:43:29.605Z,12.60
2022-10-22T08:46:21.782Z,12.60
2022-10-22T08:48:55.003Z,12.60
2022-10-22T08:51:27.692Z,12.60
2022-10-22T08:54:13.479Z,12.80
2022-10-22T08:56:48.268Z,12.80
2022-10-22T08:59:35.801Z,12.80
2022-10-22T09:02:09.668Z,12.90
2022-10-22T09:04:50.924Z,12.90
2022-10-22T09:07:18.587Z,12.90
2022-10-22T09:09:50.811Z,13.00
2022-10-22T09:12:20.273Z,13.10
2022-10-22T09:14:48.589Z,13.20
2022-10-22T09:17:36.263Z,13.30
2022-10-22T09:20:15.645Z,13.50
2022-10-22T09:23:01.290Z,13.60
2022-10-22T09:25:35.153Z,13.80
2022-10-22T09:28:04.839Z,13.80
2022-10-22T09:30:35.971Z,13.90
2022-10-22T09:33:19.180Z,14.00
2022-10-22T09:35:49.142Z,14.10
2022-10-22T09:38:19.168Z,14.10
2022-10-22T09:40:53.095Z,14.20
2022-10-22T09:43:20.928Z,14.20
2022-10-22T09:45:57.446Z,14.30
2022-10-22T09:48:40.835Z,14.30
2022-10-22T09:51:11.229Z,14.40
2022-10-22T09:53:47.466Z,14.40
2022-10-22T09:56:24.860Z,14.30
2022-10-22T09:58:55.841Z,14.30
2022-10-22T10:01:27.708Z,14.30
2022-10-22T10:04:05.622Z,14.20
2022-10-22T10:06:36.694Z,14.20
2022-10-22T10:09:14.353Z,14.20
2022-10-22T10:12:16.691Z,14.20
2022-10-22T10:15:05.404Z,14.20
2022-10-22T10:18:12.463Z,14.20
2022-10-22T10:20:39.681Z,14.30
2022-10-22T10:23:21.752Z,14.40
2022-10-22T10:26:05.288Z,14.50
2022-10-22T10:28:38.522Z,14.60
2022-10-22T10:31:18.039Z,14.70
2022-10-22T10:33:52.368Z,14.80
2022-10-22T10:36:43.907Z,15.00
2022-10-22T10:39:17.374Z,15.00
2022-10-22T10:41:50.887Z,14.90
2022-10-22T10:44:33.465Z,14.90
2022-10-22T10:47:35.694Z,14.90
2022-10-22T10:50:20.812Z,14.90
2022-10-22T10:53:00.760Z,14.90
2022-10-22T10:55:34.580Z,14.90
2022-10-22T10:58:24.788Z,15.10
2022-10-22T11:01:10.429Z,15.20
2022-10-22T11:03:46.484Z,15.30
2022-10-22T11:06:23.032Z,15.50
2022-10-22T11:09:04.518Z,15.60
2022-10-22T11:11:54.104Z,15.60
2022-10-22T11:14:30.277Z,15.60
2022-10-22T11:17:04.610Z,15.50
2022-10-22T11:20:16.319Z,15.40
2022-10-22T11:23:17.530Z,15.40
2022-10-22T11:25:46.108Z,15.30
2022-10-22T11:28:33.884Z,15.20
2022-10-22T11:31:13.838Z,15.10
2022-10-22T11:34:09.989Z,15.20
2022-10-22T11:36:44.572Z,15.20
2022-10-22T11:39:33.831Z,15.40
2022-10-22T11:42:05.518Z,15.40
2022-10-22T11:44:46.649Z,15.40
2022-10-22T11:47:27.690Z,15.50
2022-10-22T11:50:16.380Z,15.40
2022-10-22T11:53:03.723Z,15.40
2022-10-22T11:55:42.007Z,15.40
2022-10-22T11:58:29.283Z,15.40
2022-10-22T12:01:07.152Z,15.30
2022-10-22T12:03:34.665Z,15.30
2022-10-22T12:06:07.954Z,15.30
2022-10-22T12:08:44.355Z,15.50
2022-10-22T12:11:11.351Z,15.50
2022-10-22T12:14:24.070Z,15.50
2022-10-22T12:17:02.838Z,15.50
2022-10-22T12:19:47.592Z,15.50
2022-10-22T12:22:25.867Z,15.40
2022-10-22T12:24:55.111Z,15.30
2022-10-22T12:27:25.330Z,15.20
2022-10-22T12:29:58.127Z,15.10
2022-10-22T12:32:36.672Z,15.00
2022-10-22T12:35:06.952Z,14.90
2022-10-22T12:37:36.165Z,14.80
2022-10-22T12:40:20.865Z,14.60
2022-10-22T12:42:50.108Z,14.60
2022-10-22T12:45:17.922Z,14.70
2022-10-22T12:47:51.219Z,14.90
2022-10-22T12:50:21.754Z,15.00
2022-10-22T12:52:49.413Z,15.30
2022-10-22T12:55:25.178Z,15.30
2022-10-22T12:57:52.944Z,15.40
2022-10-22T13:00:23.395Z,15.50
2022-10-22T13:02:51.391Z,15.50
2022-10-22T13:05:26.206Z,15.50
2022-10-22T13:10:53.233Z,15.50
2022-10-22T13:13:39.280Z,15.50
2022-10-22T13:16:33.215Z,15.40
2022-10-22T13:19:00.347Z,15.30
2022-10-22T13:21:39.306Z,15.20
2022-10-22T13:24:24.234Z,15.10
2022-10-22T13:26:55.799Z,15.00
2022-10-22T13:29:24.224Z,14.90
2022-10-22T13:31:53.364Z,14.80
2022-10-22T13:34:23.332Z,14.80
2022-10-22T13:36:50.797Z,14.70
2022-10-22T13:39:24.661Z,14.70
2022-10-22T13:41:52.164Z,14.60
2022-10-22T13:44:19.592Z,14.60
2022-10-22T13:46:48.657Z,14.70
2022-10-22T13:49:20.850Z,14.60
2022-10-22T13:51:48.256Z,14.60
2022-10-22T13:54:21.518Z,14.60
2022-10-22T13:56:49.306Z,14.60
2022-10-22T13:59:18.509Z,14.60
2022-10-22T14:01:48.724Z,14.60
2022-10-22T14:04:16.115Z,14.50
2022-10-22T14:06:43.558Z,14.50
2022-10-22T14:09:15.715Z,14.50
2022-10-22T14:11:43.316Z,14.40
2022-10-22T14:14:10.359Z,14.50
2022-10-22T14:16:38.096Z,14.50
2022-10-22T14:19:10.696Z,14.40
2022-10-22T14:21:38.069Z,14.40
2022-10-22T14:24:08.235Z,14.40
2022-10-22T14:26:38.350Z,14.30
2022-10-22T14:29:10.138Z,14.30
2022-10-22T14:34:07.415Z,14.20
2022-10-22T14:36:34.676Z,14.10
2022-10-22T14:39:01.935Z,14.00
2022-10-22T14:41:32.055Z,13.90
2022-10-22T14:43:59.193Z,13.90
2022-10-22T14:46:26.490Z,13.80
2022-10-22T14:48:53.932Z,13.90
2022-10-22T14:51:21.905Z,13.90
2022-10-22T14:53:49.497Z,13.80
2022-10-22T14:56:20.197Z,13.80
2022-10-22T14:58:47.336Z,13.80
2022-10-22T15:01:15.021Z,13.80
2022-10-22T15:03:42.494Z,13.80
2022-10-22T15:06:09.838Z,13.80
2022-10-22T15:08:39.437Z,13.80
2022-10-22T15:11:10.892Z,13.70
2022-10-22T15:13:38.404Z,13.60
2022-10-22T15:16:07.997Z,13.60
2022-10-22T15:18:35.328Z,13.60
2022-10-22T15:21:05.393Z,13.60
2022-10-22T15:23:32.647Z,13.60
2022-10-22T15:26:00.033Z,13.60
2022-10-22T15:28:27.287Z,13.50
2022-10-22T15:31:00.229Z,13.40
2022-10-22T15:33:28.919Z,13.30
2022-10-22T15:35:57.405Z,13.30
2022-10-22T15:41:05.261Z,13.10
2022-10-22T15:43:36.294Z,13.10
2022-10-22T15:46:16.549Z,13.00
2022-10-22T15:48:44.534Z,13.00
2022-10-22T15:51:15.454Z,12.90
2022-10-22T15:53:42.723Z,12.90
2022-10-22T15:56:10.932Z,12.80
2022-10-22T15:58:41.523Z,12.70
2022-10-22T16:01:14.370Z,12.70
2022-10-22T16:03:43.095Z,12.60
2022-10-22T16:06:10.967Z,12.60
2022-10-22T16:08:39.058Z,12.50
2022-10-22T16:11:08.495Z,12.50
2022-10-22T16:13:35.687Z,12.50
2022-10-22T16:16:06.342Z,12.60
2022-10-22T16:18:39.420Z,12.60
2022-10-22T16:21:12.707Z,12.60
2022-10-22T16:23:40.366Z,12.50
2022-10-22T16:28:49.926Z,12.50
2022-10-22T16:31:21.496Z,12.50
2022-10-22T16:33:50.387Z,12.60
2022-10-22T16:36:23.041Z,12.60
2022-10-22T16:38:50.433Z,12.60
2022-10-22T16:41:24.381Z,12.60
2022-10-22T16:46:46.323Z,12.50
2022-10-22T16:49:13.800Z,12.50
2022-10-22T16:51:43.784Z,12.50
2022-10-22T16:54:25.719Z,12.50
2022-10-22T16:56:57.267Z,12.40
2022-10-22T16:59:24.486Z,12.40
2022-10-22T17:04:39.024Z,12.40
2022-10-22T17:07:09.813Z,12.40
2022-10-22T17:09:37.260Z,12.50
2022-10-22T17:12:04.709Z,12.50
2022-10-22T17:14:34.470Z,12.50
2022-10-22T17:17:04.358Z,12.60
2022-10-22T17:19:31.328Z,12.70
2022-10-22T17:21:58.906Z,12.80
2022-10-22T17:24:29.676Z,12.80
2022-10-22T17:29:37.829Z,12.80
2022-10-22T17:32:05.481Z,12.80
2022-10-22T17:34:35.099Z,12.70
2022-10-22T17:37:02.440Z,12.60
2022-10-22T17:39:32.254Z,12.60
2022-10-22T17:42:02.277Z,12.40
2022-10-22T17:44:32.215Z,12.30
2022-10-22T17:47:01.812Z,12.30
2022-10-22T17:49:33.635Z,12.20
2022-10-22T17:54:28.376Z,12.00
2022-10-22T17:56:55.926Z,11.90
2022-10-22T17:59:23.277Z,11.90
2022-10-22T18:01:50.834Z,11.80
2022-10-22T18:04:19.847Z,11.80
2022-10-22T18:06:47.950Z,11.70
2022-10-22T18:09:18.530Z,11.70
2022-10-22T18:11:50.445Z,11.70
2022-10-22T18:14:22.565Z,11.70
2022-10-22T18:16:52.671Z,11.60
2022-10-22T18:19:21.198Z,11.70
2022-10-22T18:21:48.675Z,11.60
2022-10-22T18:24:16.913Z,11.60
2022-10-22T18:26:44.698Z,11.60
2022-10-22T18:29:16.124Z,11.60
2022-10-22T18:31:46.127Z,11.60
2022-10-22T18:34:20.349Z,11.70
2022-10-22T18:37:04.174Z,11.70
2022-10-22T18:39:31.308Z,11.70
2022-10-22T18:42:13.222Z,11.80
2022-10-22T18:44:40.480Z,11.80
2022-10-22T18:47:07.707Z,11.90
2022-10-22T18:49:35.195Z,11.90
2022-10-22T18:52:02.191Z,11.90
2022-10-22T18:54:29.628Z,11.90
2022-10-22T18:56:59.365Z,11.90
2022-10-22T18:59:32.061Z,12.00
2022-10-22T19:01:59.732Z,12.00
2022-10-22T19:04:36.340Z,12.00
2022-10-22T19:07:05.391Z,11.90
2022-10-22T19:09:32.719Z,12.00
2022-10-22T19:12:00.578Z,12.00
2022-10-22T19:14:33.896Z,12.00
2022-10-22T19:17:01.281Z,12.00
2022-10-22T19:19:36.856Z,12.00
2022-10-22T19:22:04.417Z,12.00
2022-10-22T19:24:31.808Z,12.00
2022-10-22T19:26:58.912Z,11.90
2022-10-22T19:29:26.534Z,11.90
2022-10-22T19:31:54.156Z,11.80
2022-10-22T19:34:21.630Z,11.80
2022-10-22T19:36:51.300Z,11.70
2022-10-22T19:39:18.734Z,11.60
2022-10-22T19:41:45.984Z,11.50
2022-10-22T19:44:23.042Z,11.50
2022-10-22T19:46:54.615Z,11.40
2022-10-22T19:49:28.297Z,11.30
2022-10-22T19:51:55.477Z,11.20
2022-10-22T19:54:23.458Z,11.20
2022-10-22T19:56:59.184Z,11.20
2022-10-22T19:59:32.343Z,11.10
2022-10-22T20:01:59.840Z,11.10
2022-10-22T20:04:37.023Z,11.10
2022-10-22T20:07:04.942Z,11.10
2022-10-22T20:09:32.998Z,11.10
2022-10-22T20:12:06.193Z,11.10
2022-10-22T20:14:48.597Z,11.00
2022-10-22T20:17:18.519Z,11.00
2022-10-22T20:19:53.411Z,11.00
2022-10-22T20:22:23.577Z,10.90
2022-10-22T20:24:51.213Z,10.90
2022-10-22T20:27:31.462Z,10.90
2022-10-22T20:30:04.439Z,10.80
2022-10-22T20:32:37.621Z,10.80
2022-10-22T20:35:06.441Z,10.80
2022-10-22T20:40:25.101Z,10.80
2022-10-22T20:42:53.182Z,10.80
2022-10-22T20:45:20.318Z,10.80
2022-10-22T20:47:51.685Z,10.70
2022-10-22T20:50:29.380Z,10.70
2022-10-22T20:53:11.403Z,10.70
2022-10-22T20:55:41.144Z,10.60
2022-10-22T20:58:14.294Z,10.60
2022-10-22T21:00:41.435Z,10.60
2022-10-22T21:06:06.398Z,10.60
2022-10-22T21:08:45.335Z,10.50
2022-10-22T21:11:12.732Z,10.60
2022-10-22T21:13:40.122Z,10.60
2022-10-22T21:16:16.688Z,10.60
2022-10-22T21:18:44.827Z,10.60
2022-10-22T21:21:14.103Z,10.60
2022-10-22T21:23:41.632Z,10.60
2022-10-22T21:26:09.329Z,10.50
2022-10-22T21:28:39.036Z,10.50
2022-10-22T21:31:24.368Z,10.50
2022-10-22T21:33:53.374Z,10.50
2022-10-22T21:36:23.142Z,10.40
2022-10-22T21:38:54.360Z,10.40
2022-10-22T21:41:23.315Z,10.40
2022-10-22T21:43:51.540Z,10.40
2022-10-22T21:46:24.378Z,10.40
2022-10-22T21:48:58.075Z,10.50
2022-10-22T21:51:26.103Z,10.50
2022-10-22T21:53:56.737Z,10.50
2022-10-22T21:56:39.496Z,10.60
2022-10-22T21:59:08.214Z,10.60
2022-10-22T22:01:35.813Z,10.70
2022-10-22T22:04:07.565Z,10.70
2022-10-22T22:06:35.046Z,10.70
2022-10-22T22:09:04.475Z,10.70
2022-10-22T22:11:32.940Z,10.70
2022-10-22T22:14:00.751Z,10.70
2022-10-22T22:16:31.113Z,10.70
2022-10-22T22:19:00.729Z,10.70
2022-10-22T22:21:31.769Z,10.70
2022-10-22T22:24:00.950Z,10.70
2022-10-22T22:26:30.093Z,10.70
2022-10-22T22:28:59.219Z,10.70
2022-10-22T22:31:28.951Z,10.60
2022-10-22T22:34:07.853Z,10.60
2022-10-22T22:36:40.336Z,10.50
2022-10-22T22:39:12.252Z,10.50
2022-10-22T22:41:40.042Z,10.40
2022-10-22T22:44:10.058Z,10.40
2022-10-22T22:46:37.204Z,10.30
2022-10-22T22:49:05.486Z,10.20
2022-10-22T22:51:33.624Z,10.20
2022-10-22T22:54:01.730Z,10.20
2022-10-22T22:56:33.666Z,10.10
2022-10-22T22:59:01.224Z,10.00
2022-10-22T23:01:30.269Z,10.00
2022-10-22T23:04:00.786Z,9.90
2022-10-22T23:06:30.662Z,9.90
2022-10-22T23:08:58.717Z,9.90
2022-10-22T23:11:27.357Z,9.90
2022-10-22T23:14:00.713Z,9.80
2022-10-22T23:16:30.672Z,9.80
2022-10-22T23:19:01.403Z,9.90
2022-10-22T23:21:35.132Z,10.00
2022-10-22T23:24:05.765Z,10.10
2022-10-22T23:26:37.071Z,10.30
2022-10-22T23:29:10.388Z,10.40
2022-10-22T23:31:38.086Z,10.40
2022-10-22T23:34:07.022Z,10.50
2022-10-22T23:36:35.866Z,10.50
2022-10-22T23:39:10.027Z,10.50
2022-10-22T23:41:37.924Z,10.50
2022-10-22T23:44:08.678Z,10.50
2022-10-22T23:46:35.850Z,10.50
2022-10-22T23:49:03.153Z,10.40
2022-10-22T23:51:30.244Z,10.40
2022-10-22T23:54:03.799Z,10.30
2022-10-22T23:56:31.175Z,10.20
2022-10-22T23:58:58.953Z,10.20
